createdAt,value
2022-09-02T00:00:49.838Z,102274.09
2022-09-02T00:03:17.504Z,102264.66
2022-09-02T00:05:44.956Z,102266.63
2022-09-02T00:08:11.718Z,102262.97
2022-09-02T00:10:40.700Z,102262.34
2022-09-02T00:13:09.298Z,102266.97
2022-09-02T00:15:35.849Z,102276.56
2022-09-02T00:18:02.893Z,102273.06
2022-09-02T00:20:30.657Z,102278.50
2022-09-02T00:22:58.997Z,102278.09
2022-09-02T00:25:25.418Z,102284.06
2022-09-02T00:27:51.938Z,102285.78
2022-09-02T00:30:18.540Z,102282.31
2022-09-02T00:32:45.046Z,102275.38
2022-09-02T00:35:11.509Z,102287.06
2022-09-02T00:37:38.568Z,102286.44
2022-09-02T00:40:07.185Z,102290.13
2022-09-02T00:42:34.765Z,102294.63
2022-09-02T00:45:02.496Z,102330.03
2022-09-02T00:47:31.117Z,102495.44
2022-09-02T00:49:59.542Z,102497.38
2022-09-02T00:52:31.935Z,102494.78
2022-09-02T00:55:21.717Z,102503.63
2022-09-02T00:57:59.669Z,102500.19
2022-09-02T01:00:34.771Z,102494.88
2022-09-02T01:03:05.803Z,102490.63
2022-09-02T01:05:43.678Z,102485.44
2022-09-02T01:08:11.790Z,102490.97
2022-09-02T01:10:39.607Z,102498.28
2022-09-02T01:13:09.769Z,102497.59
2022-09-02T01:15:39.747Z,102509.06
2022-09-02T01:18:09.038Z,102509.94
2022-09-02T01:20:35.791Z,102519.56
2022-09-02T01:23:02.451Z,102526.84
2022-09-02T01:25:32.358Z,102534.06
2022-09-02T01:28:05.859Z,102538.50
2022-09-02T01:30:33.649Z,102557.19
2022-09-02T01:33:00.171Z,102561.75
2022-09-02T01:35:27.698Z,102570.44
2022-09-02T01:37:56.804Z,102579.41
2022-09-02T01:40:26.003Z,102592.69
2022-09-02T01:43:02.588Z,102605.97
2022-09-02T01:45:30.113Z,102616.63
2022-09-02T01:47:56.663Z,102623.69
2022-09-02T01:50:23.770Z,102637.09
2022-09-02T01:52:50.405Z,102651.91
2022-09-02T01:55:17.132Z,102658.00
2022-09-02T01:57:43.697Z,102673.81
2022-09-02T02:00:11.957Z,102684.72
2022-09-02T02:02:38.839Z,102690.09
2022-09-02T02:05:05.573Z,102705.97
2022-09-02T02:07:32.046Z,102705.31
2022-09-02T02:09:58.676Z,102712.34
2022-09-02T02:12:25.544Z,102722.84
2022-09-02T02:14:52.031Z,102721.34
2022-09-02T02:17:21.508Z,102726.88
2022-09-02T02:19:48.012Z,102737.22
2022-09-02T02:22:14.636Z,102738.91
2022-09-02T02:24:41.409Z,102747.00
2022-09-02T02:27:07.936Z,102748.63
2022-09-02T02:29:34.441Z,102749.50
2022-09-02T02:32:01.011Z,102761.06
2022-09-02T02:34:27.492Z,102769.94
2022-09-02T02:36:53.951Z,102769.25
2022-09-02T02:39:20.750Z,102767.63
2022-09-02T02:41:47.469Z,102768.50
2022-09-02T02:44:14.005Z,102791.47
2022-09-02T02:46:40.570Z,102797.91
2022-09-02T02:49:07.558Z,102808.66
2022-09-02T02:51:34.798Z,102815.59
2022-09-02T02:54:02.130Z,102830.50
2022-09-02T02:56:30.403Z,102827.19
2022-09-02T02:58:59.828Z,102828.00
2022-09-02T03:01:26.342Z,102830.78
2022-09-02T03:03:54.217Z,102836.13
2022-09-02T03:06:21.960Z,102852.16
2022-09-02T03:08:53.517Z,102851.25
2022-09-02T03:11:22.450Z,102867.03
2022-09-02T03:13:50.508Z,102860.97
2022-09-02T03:16:19.540Z,102877.78
2022-09-02T03:18:47.627Z,102874.28
2022-09-02T03:21:16.049Z,102877.84
2022-09-02T03:23:43.870Z,102879.75
2022-09-02T03:26:18.846Z,102869.13
2022-09-02T03:28:47.493Z,102881.53
2022-09-02T03:31:16.667Z,102886.69
2022-09-02T03:33:43.355Z,102885.84
2022-09-02T03:36:29.539Z,102890.34
2022-09-02T03:38:57.067Z,102896.53
2022-09-02T03:41:23.991Z,102893.19
2022-09-02T03:43:51.224Z,102897.53
2022-09-02T03:46:18.668Z,102898.53
2022-09-02T03:48:45.289Z,102902.13
2022-09-02T03:51:12.198Z,102909.09
2022-09-02T03:53:39.194Z,102906.38
2022-09-02T03:56:08.587Z,102910.75
2022-09-02T03:58:36.316Z,102911.66
2022-09-02T04:01:04.010Z,102913.41
2022-09-02T04:03:30.686Z,102911.66
2022-09-02T04:05:57.555Z,102918.69
2022-09-02T04:08:24.979Z,102916.06
2022-09-02T04:10:51.848Z,102924.81
2022-09-02T04:13:19.323Z,102919.66
2022-09-02T04:15:48.940Z,102925.69
2022-09-02T04:18:17.394Z,102924.84
2022-09-02T04:20:44.395Z,102929.16
2022-09-02T04:23:11.468Z,102938.88
2022-09-02T04:25:43.349Z,102931.84
2022-09-02T04:28:10.256Z,102937.94
2022-09-02T04:30:41.234Z,102941.44
2022-09-02T04:33:08.007Z,102944.03
2022-09-02T04:35:35.967Z,102951.16
2022-09-02T04:38:03.019Z,102946.66
2022-09-02T04:40:29.783Z,102961.66
2022-09-02T04:42:56.323Z,102960.63
2022-09-02T04:45:26.587Z,102962.41
2022-09-02T04:47:55.674Z,102969.41
2022-09-02T04:50:22.140Z,102971.13
2022-09-02T04:52:48.624Z,102975.44
2022-09-02T04:55:15.096Z,102991.31
2022-09-02T04:57:42.414Z,102996.75
2022-09-02T05:00:09.947Z,102998.41
2022-09-02T05:02:36.522Z,103000.91
2022-09-02T05:05:03.097Z,102999.09
2022-09-02T05:07:30.944Z,103006.88
2022-09-02T05:10:00.992Z,103020.94
2022-09-02T05:12:28.162Z,103017.44
2022-09-02T05:14:57.147Z,103030.47
2022-09-02T05:17:23.944Z,103033.88
2022-09-02T05:19:50.470Z,103040.03
2022-09-02T05:22:17.639Z,103047.88
2022-09-02T05:24:44.733Z,103042.50
2022-09-02T05:27:11.375Z,103038.84
2022-09-02T05:29:38.645Z,103058.03
2022-09-02T05:32:08.044Z,103063.06
2022-09-02T05:34:36.024Z,103061.13
2022-09-02T05:37:03.503Z,103067.06
2022-09-02T05:39:30.822Z,103065.84
2022-09-02T05:41:58.140Z,103065.66
2022-09-02T05:44:25.128Z,103068.88
2022-09-02T05:46:52.009Z,103079.31
2022-09-02T05:49:18.548Z,103059.50
2022-09-02T05:51:57.188Z,103035.84
2022-09-02T05:54:30.032Z,103040.50
2022-09-02T05:56:59.528Z,103040.00
2022-09-02T05:59:28.017Z,103045.59
2022-09-02T06:01:55.442Z,103041.66
2022-09-02T06:04:22.738Z,103040.16
2022-09-02T06:06:50.564Z,103038.78
2022-09-02T06:09:21.001Z,103040.03
2022-09-02T06:11:49.357Z,103045.75
2022-09-02T06:14:18.895Z,103049.50
2022-09-02T06:16:46.767Z,103047.13
2022-09-02T06:19:17.698Z,103050.09
2022-09-02T06:21:46.988Z,103050.50
2022-09-02T06:24:17.061Z,103052.88
2022-09-02T06:26:43.861Z,103043.56
2022-09-02T06:29:11.109Z,103049.44
2022-09-02T06:31:41.548Z,103047.09
2022-09-02T06:34:12.371Z,103036.41
2022-09-02T06:36:39.644Z,103034.94
2022-09-02T06:39:06.436Z,103020.41
2022-09-02T06:41:34.467Z,103003.78
2022-09-02T06:44:03.837Z,102987.16
2022-09-02T06:46:40.677Z,102968.78
2022-09-02T06:49:08.615Z,102935.94
2022-09-02T06:51:41.817Z,102910.34
2022-09-02T06:54:11.376Z,102879.31
2022-09-02T06:56:43.923Z,102849.25
2022-09-02T06:59:14.315Z,102838.47
2022-09-02T07:01:41.103Z,102822.06
2022-09-02T07:04:26.183Z,102807.84
2022-09-02T07:06:55.144Z,102796.63
2022-09-02T07:09:31.055Z,102786.50
2022-09-02T07:12:03.571Z,102770.28
2022-09-02T07:14:31.924Z,102739.47
2022-09-02T07:17:00.083Z,102715.03
2022-09-02T07:19:27.085Z,102686.31
2022-09-02T07:21:54.120Z,102647.47
2022-09-02T07:24:20.977Z,102616.53
2022-09-02T07:26:47.551Z,102576.75
2022-09-02T07:29:14.724Z,102530.75
2022-09-02T07:31:43.577Z,102467.94
2022-09-02T07:34:11.209Z,102374.91
2022-09-02T07:36:38.194Z,102301.72
2022-09-02T07:39:07.522Z,102250.47
2022-09-02T07:41:35.024Z,102207.75
2022-09-02T07:44:02.522Z,102158.63
2022-09-02T07:46:31.473Z,102119.50
2022-09-02T07:48:59.917Z,102110.25
2022-09-02T07:51:27.551Z,102110.22
2022-09-02T07:53:57.391Z,102089.50
2022-09-02T07:56:23.891Z,102093.81
2022-09-02T07:58:50.437Z,102094.03
2022-09-02T08:01:22.599Z,102095.59
2022-09-02T08:03:50.094Z,102096.63
2022-09-02T08:06:16.937Z,102108.53
2022-09-02T08:08:48.546Z,102102.59
2022-09-02T08:11:15.102Z,102108.31
2022-09-02T08:13:41.799Z,102109.50
2022-09-02T08:16:08.450Z,102103.47
2022-09-02T08:18:36.242Z,102105.59
2022-09-02T08:21:02.932Z,102104.09
2022-09-02T08:23:37.699Z,102100.53
2022-09-02T08:26:05.755Z,102103.22
2022-09-02T08:28:32.464Z,102096.13
2022-09-02T08:30:59.244Z,102097.53
2022-09-02T08:33:25.852Z,102116.50
2022-09-02T08:35:52.338Z,102155.06
2022-09-02T08:38:18.873Z,102181.75
2022-09-02T08:40:45.714Z,102201.31
2022-09-02T08:43:40.004Z,102215.19
2022-09-02T08:46:11.310Z,102230.16
2022-09-02T08:48:50.011Z,102261.09
2022-09-02T08:51:37.376Z,102267.66
2022-09-02T08:54:13.394Z,102268.56
2022-09-02T08:56:40.803Z,102263.97
2022-09-02T08:59:09.443Z,102258.84
2022-09-02T09:01:48.564Z,102242.00
2022-09-02T09:04:36.420Z,102238.09
2022-09-02T09:07:18.161Z,102236.66
2022-09-02T09:10:10.832Z,102228.47
2022-09-02T09:12:54.328Z,102212.94
2022-09-02T09:15:38.459Z,102205.41
2022-09-02T09:18:08.614Z,102199.50
2022-09-02T09:20:41.104Z,102205.28
2022-09-02T09:23:34.061Z,102218.47
2022-09-02T09:26:20.852Z,102234.38
2022-09-02T09:28:49.379Z,102226.91
2022-09-02T09:31:18.762Z,102229.00
2022-09-02T09:34:14.549Z,102209.63
2022-09-02T09:36:40.973Z,102194.69
2022-09-02T09:39:28.187Z,102187.31
2022-09-02T09:42:13.430Z,102187.81
2022-09-02T09:44:48.233Z,102183.34
2022-09-02T09:47:20.736Z,102182.88
2022-09-02T09:49:49.507Z,102167.00
2022-09-02T09:52:27.502Z,102145.03
2022-09-02T09:55:14.374Z,102108.03
2022-09-02T09:57:44.817Z,102093.06
2022-09-02T10:00:28.113Z,102071.22
2022-09-02T10:02:58.400Z,102045.91
2022-09-02T10:05:24.779Z,102046.53
2022-09-02T10:08:02.820Z,102020.38
2022-09-02T10:10:31.118Z,102004.88
2022-09-02T10:13:20.316Z,101989.06
2022-09-02T10:16:06.673Z,102010.00
2022-09-02T10:18:54.595Z,102019.63
2022-09-02T10:21:32.091Z,101991.22
2022-09-02T10:24:27.009Z,101976.91
2022-09-02T10:26:57.382Z,101961.88
2022-09-02T10:29:54.349Z,101967.72
2022-09-02T10:32:49.364Z,101952.41
2022-09-02T10:35:25.047Z,101920.13
2022-09-02T10:38:22.587Z,101932.75
2022-09-02T10:41:04.961Z,101933.03
2022-09-02T10:44:03.419Z,101903.41
2022-09-02T10:46:43.948Z,101882.63
2022-09-02T10:49:23.977Z,101804.44
2022-09-02T10:52:06.678Z,101688.91
2022-09-02T10:55:03.291Z,101616.16
2022-09-02T10:57:34.183Z,101612.94
2022-09-02T11:00:11.690Z,101584.25
2022-09-02T11:02:45.473Z,101471.78
2022-09-02T11:05:16.469Z,101428.00
2022-09-02T11:07:49.440Z,101416.84
2022-09-02T11:10:22.446Z,101437.91
2022-09-02T11:13:03.026Z,101406.84
2022-09-02T11:15:45.816Z,101378.13
2022-09-02T11:18:50.026Z,101430.72
2022-09-02T11:21:32.701Z,101358.81
2022-09-02T11:24:11.951Z,101252.84
2022-09-02T11:26:48.780Z,101217.78
2022-09-02T11:29:22.414Z,101288.34
2022-09-02T11:32:05.653Z,101263.94
2022-09-02T11:34:35.061Z,101296.69
2022-09-02T11:37:29.941Z,101161.22
2022-09-02T11:40:33.812Z,101089.97
2022-09-02T11:43:22.040Z,101053.00
2022-09-02T11:46:07.423Z,100971.84
2022-09-02T11:48:43.621Z,100942.50
2022-09-02T11:51:22.139Z,100982.91
2022-09-02T11:53:54.955Z,100964.72
2022-09-02T11:56:31.012Z,100959.16
2022-09-02T11:58:57.678Z,100886.03
2022-09-02T12:01:52.945Z,100948.78
2022-09-02T12:04:58.756Z,100939.28
2022-09-02T12:07:13.327Z,100890.38
2022-09-02T12:09:54.927Z,100928.50
2022-09-02T12:12:36.695Z,100889.97
2022-09-02T12:15:06.549Z,100873.59
2022-09-02T12:17:40.014Z,100814.84
2022-09-02T12:20:09.841Z,100848.31
2022-09-02T12:22:38.953Z,100901.19
2022-09-02T12:25:26.805Z,100847.50
2022-09-02T12:28:10.823Z,100828.91
2022-09-02T12:30:54.804Z,100756.34
2022-09-02T12:33:33.057Z,100878.66
2022-09-02T12:36:00.400Z,100946.00
2022-09-02T12:38:30.123Z,100907.09
2022-09-02T12:41:05.790Z,100747.63
2022-09-02T12:44:01.029Z,100748.88
2022-09-02T12:46:36.706Z,100779.09
2022-09-02T12:49:22.192Z,100815.53
2022-09-02T12:52:02.803Z,100773.06
2022-09-02T12:54:32.253Z,100793.94
2022-09-02T12:56:58.922Z,100825.38
2022-09-02T12:59:32.016Z,100840.94
2022-09-02T13:02:14.771Z,100858.47
2022-09-02T13:04:56.206Z,100922.97
2022-09-02T13:07:41.488Z,100837.03
2022-09-02T13:10:26.895Z,100691.78
2022-09-02T13:13:18.000Z,100711.47
2022-09-02T13:16:02.844Z,100748.06
2022-09-02T13:18:44.619Z,100827.16
2022-09-02T13:21:30.156Z,100783.06
2022-09-02T13:24:36.149Z,100794.31
2022-09-02T13:27:17.056Z,101050.59
2022-09-02T13:30:08.227Z,100996.41
2022-09-02T13:32:35.321Z,100785.78
2022-09-02T13:35:18.317Z,100775.31
2022-09-02T13:37:56.557Z,100765.00
2022-09-02T13:40:27.507Z,100759.59
2022-09-02T13:42:57.193Z,100666.97
2022-09-02T13:45:26.360Z,100664.03
2022-09-02T13:47:59.572Z,100631.81
2022-09-02T13:50:29.961Z,100559.13
2022-09-02T13:55:57.475Z,100662.69
2022-09-02T13:58:30.054Z,100598.34
2022-09-02T14:01:02.217Z,100666.41
2022-09-02T14:03:33.024Z,100701.06
2022-09-02T14:06:01.106Z,100955.94
2022-09-02T14:08:30.536Z,101144.97
2022-09-02T14:10:58.377Z,101203.91
2022-09-02T14:13:25.340Z,100994.16
2022-09-02T14:15:51.900Z,100835.03
2022-09-02T14:18:20.930Z,100797.00
2022-09-02T14:20:58.598Z,101068.47
2022-09-02T14:23:27.198Z,101102.88
2022-09-02T14:25:56.340Z,101042.22
2022-09-02T14:28:31.585Z,100920.38
2022-09-02T14:31:07.158Z,100840.63
2022-09-02T14:33:38.782Z,100760.25
2022-09-02T14:36:11.923Z,100724.59
2022-09-02T14:38:49.851Z,100697.84
2022-09-02T14:41:26.822Z,100719.97
2022-09-02T14:43:56.854Z,100643.41
2022-09-02T14:46:29.922Z,100655.88
2022-09-02T14:49:10.270Z,100676.91
2022-09-02T14:51:44.048Z,100813.94
2022-09-02T14:54:11.473Z,100808.19
2022-09-02T14:56:51.466Z,100813.38
2022-09-02T14:59:20.215Z,100731.53
2022-09-02T15:01:51.393Z,100731.13
2022-09-02T15:04:19.429Z,100650.91
2022-09-02T15:06:46.391Z,100699.75
2022-09-02T15:09:16.813Z,100710.78
2022-09-02T15:11:51.318Z,100693.28
2022-09-02T15:14:17.842Z,100651.44
2022-09-02T15:16:44.396Z,100634.47
2022-09-02T15:19:11.128Z,100703.31
2022-09-02T15:21:37.600Z,100711.94
2022-09-02T15:24:05.237Z,100747.13
2022-09-02T15:26:31.745Z,100797.38
2022-09-02T15:28:58.231Z,100733.88
2022-09-02T15:31:24.848Z,100722.47
2022-09-02T15:33:52.418Z,100797.28
2022-09-02T15:36:19.193Z,100736.84
2022-09-02T15:38:45.698Z,100732.38
2022-09-02T15:41:19.457Z,100725.31
2022-09-02T15:43:47.672Z,100824.19
2022-09-02T15:46:31.211Z,100819.81
2022-09-02T15:49:02.790Z,100859.00
2022-09-02T15:51:29.634Z,100857.22
2022-09-02T15:54:05.593Z,100859.84
2022-09-02T15:56:34.358Z,100834.59
2022-09-02T15:59:03.592Z,100855.38
2022-09-02T16:01:32.825Z,100859.22
2022-09-02T16:04:02.160Z,100817.91
2022-09-02T16:06:29.255Z,100838.56
2022-09-02T16:08:56.064Z,100901.06
2022-09-02T16:11:23.112Z,100916.91
2022-09-02T16:13:50.354Z,100878.44
2022-09-02T16:16:17.789Z,100946.09
2022-09-02T16:18:49.236Z,101006.56
2022-09-02T16:21:15.696Z,100977.16
2022-09-02T16:23:42.535Z,101075.19
2022-09-02T16:26:21.166Z,100954.56
2022-09-02T16:28:48.428Z,100978.34
2022-09-02T16:31:17.422Z,100960.53
2022-09-02T16:33:45.570Z,101007.63
2022-09-02T16:36:12.070Z,101031.84
2022-09-02T16:38:38.678Z,101030.56
2022-09-02T16:41:05.288Z,101072.84
2022-09-02T16:43:32.541Z,101121.53
2022-09-02T16:46:03.134Z,101165.03
2022-09-02T16:48:32.866Z,101220.56
2022-09-02T16:51:04.325Z,101213.81
2022-09-02T16:53:31.900Z,101156.78
2022-09-02T16:55:58.796Z,101238.22
2022-09-02T16:58:25.916Z,101229.19
2022-09-02T17:00:52.673Z,101230.16
2022-09-02T17:03:19.191Z,101287.25
2022-09-02T17:05:47.918Z,101316.63
2022-09-02T17:08:15.448Z,101281.53
2022-09-02T17:10:42.040Z,101353.63
2022-09-02T17:13:08.599Z,101313.47
2022-09-02T17:15:35.060Z,101351.78
2022-09-02T17:18:01.566Z,101452.44
2022-09-02T17:20:28.192Z,101457.75
2022-09-02T17:22:55.353Z,101543.44
2022-09-02T17:25:22.232Z,101596.69
2022-09-02T17:27:49.007Z,101699.09
2022-09-02T17:30:15.752Z,101737.78
2022-09-02T17:32:42.371Z,101783.50
2022-09-02T17:35:11.317Z,101855.59
2022-09-02T17:37:38.195Z,101905.59
2022-09-02T17:40:08.119Z,101925.16
2022-09-02T17:42:34.662Z,101944.69
2022-09-02T17:45:01.264Z,101975.75
2022-09-02T17:47:30.301Z,101987.06
2022-09-02T17:49:56.799Z,102008.28
2022-09-02T17:52:24.153Z,102016.97
2022-09-02T17:54:52.414Z,102031.06
2022-09-02T17:57:21.217Z,102041.47
2022-09-02T18:00:01.255Z,102041.81
2022-09-02T18:02:40.383Z,102050.59
2022-09-02T18:05:21.976Z,102056.25
2022-09-02T18:08:11.156Z,102067.31
2022-09-02T18:10:40.650Z,102079.22
2022-09-02T18:13:13.290Z,102079.50
2022-09-02T18:15:59.568Z,102078.75
2022-09-02T18:18:28.268Z,102084.75
2022-09-02T18:21:17.276Z,102080.25
2022-09-02T18:23:43.701Z,102074.03
2022-09-02T18:26:33.217Z,102077.25
2022-09-02T18:29:26.992Z,102077.50
2022-09-02T18:32:16.997Z,102066.84
2022-09-02T18:35:06.169Z,102062.31
2022-09-02T18:37:52.721Z,102060.75
2022-09-02T18:41:07.783Z,102052.38
2022-09-02T18:44:27.975Z,102037.78
2022-09-02T18:47:01.769Z,102028.34
2022-09-02T18:49:33.083Z,101998.72
2022-09-02T18:52:04.928Z,101968.38
2022-09-02T18:54:45.216Z,101946.72
2022-09-02T18:57:11.945Z,101922.50
2022-09-02T18:59:42.717Z,101906.69
2022-09-02T19:02:35.560Z,101903.47
2022-09-02T19:05:07.066Z,101885.25
2022-09-02T19:07:54.646Z,101869.59
2022-09-02T19:10:22.868Z,101854.69
2022-09-02T19:12:49.935Z,101843.66
2022-09-02T19:15:17.338Z,101836.03
2022-09-02T19:17:44.000Z,101826.56
2022-09-02T19:20:10.922Z,101817.72
2022-09-02T19:22:42.820Z,101815.09
2022-09-02T19:25:21.265Z,101818.75
2022-09-02T19:27:50.468Z,101813.69
2022-09-02T19:30:20.223Z,101825.84
2022-09-02T19:32:50.062Z,101818.69
2022-09-02T19:35:22.977Z,101825.03
2022-09-02T19:37:52.848Z,101814.94
2022-09-02T19:40:23.963Z,101818.25
2022-09-02T19:42:52.690Z,101825.66
2022-09-02T19:45:19.969Z,101821.56
2022-09-02T19:50:33.159Z,101837.44
2022-09-02T19:52:59.721Z,101835.06
2022-09-02T19:55:26.195Z,101836.72
2022-09-02T19:57:53.227Z,101837.03
2022-09-02T20:00:19.829Z,101848.59
2022-09-02T20:02:46.271Z,101841.75
2022-09-02T20:05:13.880Z,101849.66
2022-09-02T20:07:40.784Z,101848.91
2022-09-02T20:10:08.544Z,101841.06
2022-09-02T20:12:36.361Z,101839.91
2022-09-02T20:15:04.863Z,101824.59
2022-09-02T20:17:31.905Z,101824.94
2022-09-02T20:20:00.990Z,101832.41
2022-09-02T20:22:31.075Z,101834.66
2022-09-02T20:24:58.003Z,101824.38
2022-09-02T20:28:01.166Z,101823.41
2022-09-02T20:30:33.715Z,101818.06
2022-09-02T20:33:19.208Z,101804.00
2022-09-02T20:36:07.810Z,101788.47
2022-09-02T20:39:03.914Z,101775.28
2022-09-02T20:41:39.693Z,101773.81
2022-09-02T20:44:30.772Z,101765.00
2022-09-02T20:47:32.704Z,101786.34
2022-09-02T20:50:14.027Z,101791.28
2022-09-02T20:53:14.072Z,101796.53
2022-09-02T20:56:09.062Z,101799.63
2022-09-02T20:58:54.523Z,101801.75
2022-09-02T21:01:31.175Z,101808.94
2022-09-02T21:04:06.456Z,101803.38
2022-09-02T21:06:44.429Z,101798.78
2022-09-02T21:09:27.387Z,101804.66
2022-09-02T21:12:10.392Z,101807.44
2022-09-02T21:14:49.116Z,101810.09
2022-09-02T21:17:41.274Z,101820.00
2022-09-02T21:20:20.047Z,101817.75
2022-09-02T21:22:55.314Z,101816.66
2022-09-02T21:25:28.296Z,101819.97
2022-09-02T21:28:17.196Z,101829.81
2022-09-02T21:30:49.801Z,101826.28
2022-09-02T21:33:17.715Z,101835.06
2022-09-02T21:35:53.148Z,101836.75
2022-09-02T21:38:39.306Z,101845.03
2022-09-02T21:41:05.817Z,101846.63
2022-09-02T21:43:58.532Z,101843.63
2022-09-02T21:46:33.815Z,101856.06
2022-09-02T21:49:31.260Z,101863.34
2022-09-02T21:52:06.485Z,101857.69
2022-09-02T21:54:43.794Z,101866.59
2022-09-02T21:57:28.817Z,101869.28
2022-09-02T22:00:01.339Z,101860.44
2022-09-02T22:02:46.272Z,101859.13
2022-09-02T22:05:32.340Z,101861.41
2022-09-02T22:08:11.482Z,101860.22
2022-09-02T22:10:49.688Z,101864.00
2022-09-02T22:13:16.139Z,101859.59
2022-09-02T22:16:17.946Z,101854.50
2022-09-02T22:18:55.251Z,101857.94
2022-09-02T22:21:38.034Z,101862.03
2022-09-02T22:24:04.734Z,101868.72
2022-09-02T22:26:38.674Z,101868.94
2022-09-02T22:29:13.029Z,101875.34
2022-09-02T22:31:42.998Z,101865.84
2022-09-02T22:34:10.563Z,101879.13
2022-09-02T22:36:48.927Z,101872.03
2022-09-02T22:39:20.525Z,101876.19
2022-09-02T22:42:04.010Z,101875.00
2022-09-02T22:45:00.699Z,101872.22
2022-09-02T22:47:50.373Z,101874.72
2022-09-02T22:50:41.645Z,101867.16
2022-09-02T22:53:08.138Z,101869.59
2022-09-02T22:55:56.466Z,101876.06
2022-09-02T22:58:33.225Z,101874.63
2022-09-02T23:01:27.798Z,101864.03
2022-09-02T23:04:25.629Z,101872.78
2022-09-02T23:06:55.106Z,101875.41
2022-09-02T23:09:21.596Z,101867.16
2022-09-02T23:12:03.286Z,101871.91
2022-09-02T23:14:51.596Z,101870.97
2022-09-02T23:17:33.901Z,101870.50
2022-09-02T23:20:22.127Z,101863.34
2022-09-02T23:23:18.823Z,101864.53
2022-09-02T23:26:00.127Z,101866.44
2022-09-02T23:28:52.358Z,101868.84
2022-09-02T23:31:37.134Z,101875.31
2022-09-02T23:34:30.790Z,101872.97
2022-09-02T23:37:21.032Z,101879.31
2022-09-02T23:40:10.256Z,101879.94
2022-09-02T23:42:37.850Z,101872.09
2022-09-02T23:45:20.566Z,101864.34
2022-09-02T23:48:09.400Z,101870.81
2022-09-02T23:50:58.213Z,101863.34
2022-09-02T23:53:33.788Z,101870.34
2022-09-02T23:56:32.707Z,101863.47
2022-09-02T23:59:36.332Z,101863.47
